createdAt,value
2019-03-21T00:01:47.694Z,6.07
2019-03-21T00:04:15.221Z,5.77
2019-03-21T00:06:42.495Z,6.53
2019-03-21T00:09:11.274Z,5.90
2019-03-21T00:11:54.976Z,6.63
2019-03-21T00:14:29.963Z,6.23
2019-03-21T00:16:57.204Z,6.27
2019-03-21T00:19:24.472Z,6.40
2019-03-21T00:21:51.986Z,6.80
2019-03-21T00:24:19.231Z,6.60
2019-03-21T00:26:46.475Z,6.90
2019-03-21T00:29:13.755Z,7.57
2019-03-21T00:31:40.993Z,6.63
2019-03-21T00:34:08.237Z,5.77
2019-03-21T00:36:35.743Z,6.10
2019-03-21T00:39:02.993Z,6.50
2019-03-21T00:41:30.262Z,6.40
2019-03-21T00:43:57.534Z,6.10
2019-03-21T00:46:24.775Z,7.00
2019-03-21T00:48:52.024Z,5.93
2019-03-21T00:51:19.296Z,6.07
2019-03-21T00:53:46.538Z,6.00
2019-03-21T00:56:13.812Z,6.57
2019-03-21T00:58:41.162Z,6.10
2019-03-21T01:01:08.994Z,6.47
2019-03-21T01:03:36.915Z,6.27
2019-03-21T01:06:04.356Z,6.77
2019-03-21T01:08:31.590Z,6.70
2019-03-21T01:10:58.865Z,5.33
2019-03-21T01:13:28.007Z,5.90
2019-03-21T01:15:55.494Z,6.37
2019-03-21T01:18:22.761Z,5.70
2019-03-21T01:20:50.011Z,5.97
2019-03-21T01:23:17.282Z,5.67
2019-03-21T01:25:48.742Z,5.77
2019-03-21T01:28:15.987Z,5.17
2019-03-21T01:30:43.259Z,5.57
2019-03-21T01:33:10.530Z,5.33
2019-03-21T01:35:38.477Z,5.33
2019-03-21T01:38:05.742Z,5.93
2019-03-21T01:40:43.405Z,4.87
2019-03-21T01:43:10.676Z,5.50
2019-03-21T01:45:37.926Z,4.67
2019-03-21T01:48:05.193Z,6.30
2019-03-21T01:50:33.478Z,5.50
2019-03-21T01:53:00.839Z,4.83
2019-03-21T01:55:28.110Z,5.10
2019-03-21T01:57:55.385Z,6.40
2019-03-21T02:00:26.873Z,5.13
2019-03-21T02:02:55.126Z,4.97
2019-03-21T02:05:22.374Z,5.23
2019-03-21T02:07:49.618Z,5.07
2019-03-21T02:10:17.259Z,4.53
2019-03-21T02:12:44.552Z,5.07
2019-03-21T02:15:12.654Z,4.70
2019-03-21T02:17:40.082Z,4.53
2019-03-21T02:20:09.159Z,5.47
2019-03-21T02:22:36.430Z,4.90
2019-03-21T02:25:05.574Z,4.93
2019-03-21T02:27:32.847Z,4.90
2019-03-21T02:30:00.418Z,4.40
2019-03-21T02:32:27.871Z,4.70
2019-03-21T02:34:55.101Z,5.87
2019-03-21T02:37:22.375Z,5.00
2019-03-21T02:39:59.561Z,4.63
2019-03-21T02:42:18.612Z,4.20
2019-03-21T02:44:45.882Z,4.03
2019-03-21T02:47:13.198Z,4.93
2019-03-21T02:49:40.692Z,4.40
2019-03-21T02:52:07.964Z,4.80
2019-03-21T02:54:35.235Z,4.70
2019-03-21T02:57:02.590Z,4.67
2019-03-21T02:59:29.915Z,4.60
2019-03-21T03:01:57.182Z,4.70
2019-03-21T03:04:24.472Z,4.37
2019-03-21T03:06:51.772Z,4.90
2019-03-21T03:09:19.301Z,4.17
2019-03-21T03:11:46.545Z,4.30
2019-03-21T03:14:13.814Z,4.40
2019-03-21T03:16:41.053Z,4.40
2019-03-21T03:19:08.323Z,4.60
2019-03-21T03:21:35.645Z,4.20
2019-03-21T03:24:02.992Z,4.70
2019-03-21T03:26:30.260Z,4.57
2019-03-21T03:28:57.509Z,4.70
2019-03-21T03:31:24.881Z,4.80
2019-03-21T03:33:52.185Z,5.10
2019-03-21T03:36:19.468Z,4.77
2019-03-21T03:38:46.771Z,4.73
2019-03-21T03:41:15.554Z,5.30
2019-03-21T03:43:42.885Z,5.57
2019-03-21T03:46:10.118Z,5.00
2019-03-21T03:48:37.635Z,5.90
2019-03-21T03:51:04.877Z,5.37
2019-03-21T03:53:32.154Z,5.73
2019-03-21T03:55:59.390Z,5.90
2019-03-21T03:58:31.129Z,5.63
2019-03-21T04:00:58.507Z,6.00
2019-03-21T04:03:26.346Z,6.10
2019-03-21T04:05:53.678Z,5.50
2019-03-21T04:08:20.929Z,5.23
2019-03-21T04:10:51.458Z,5.20
2019-03-21T04:13:19.402Z,5.50
2019-03-21T04:15:53.329Z,5.40
2019-03-21T04:18:16.440Z,5.10
2019-03-21T04:20:50.871Z,5.13
2019-03-21T04:23:19.278Z,5.90
2019-03-21T04:25:53.741Z,5.43
2019-03-21T04:28:21.359Z,5.30
2019-03-21T04:30:49.063Z,4.83
2019-03-21T04:33:16.310Z,6.00
2019-03-21T04:35:44.008Z,4.93
2019-03-21T04:38:11.251Z,5.13
2019-03-21T04:40:38.523Z,4.57
2019-03-21T04:43:06.037Z,4.20
2019-03-21T04:45:33.284Z,4.50
2019-03-21T04:48:00.825Z,4.87
2019-03-21T04:50:31.734Z,5.17
2019-03-21T04:52:59.008Z,5.37
2019-03-21T04:55:26.333Z,5.10
2019-03-21T04:57:53.597Z,4.63
2019-03-21T05:00:22.112Z,4.60
2019-03-21T05:02:49.953Z,4.97
2019-03-21T05:05:17.230Z,4.53
2019-03-21T05:07:44.733Z,4.43
2019-03-21T05:10:13.182Z,4.23
2019-03-21T05:12:40.462Z,4.10
2019-03-21T05:15:09.494Z,4.40
2019-03-21T05:17:36.770Z,4.60
2019-03-21T05:20:05.538Z,4.83
2019-03-21T05:22:32.969Z,4.40
2019-03-21T05:25:00.339Z,3.73
2019-03-21T05:27:27.569Z,4.70
2019-03-21T05:29:54.842Z,3.90
2019-03-21T05:32:22.110Z,4.50
2019-03-21T05:34:49.351Z,4.30
2019-03-21T05:37:16.614Z,4.37
2019-03-21T05:39:43.890Z,4.10
2019-03-21T05:42:11.527Z,3.70
2019-03-21T05:44:40.597Z,3.70
2019-03-21T05:47:07.947Z,3.83
2019-03-21T05:49:35.194Z,4.50
2019-03-21T05:52:02.642Z,4.23
2019-03-21T05:54:30.385Z,3.10
2019-03-21T05:56:57.906Z,3.60
2019-03-21T05:59:25.214Z,4.73
2019-03-21T06:01:52.580Z,4.40
2019-03-21T06:04:19.949Z,3.60
2019-03-21T06:06:48.982Z,5.10
2019-03-21T06:09:17.730Z,4.30
2019-03-21T06:11:46.643Z,4.83
2019-03-21T06:14:14.335Z,4.60
2019-03-21T06:16:41.871Z,4.57
2019-03-21T06:19:10.905Z,4.50
2019-03-21T06:21:54.826Z,4.30
2019-03-21T06:24:29.644Z,4.43
2019-03-21T06:26:58.441Z,4.27
2019-03-21T06:29:25.691Z,4.63
2019-03-21T06:31:52.950Z,4.27
2019-03-21T06:34:20.197Z,4.43
2019-03-21T06:36:47.718Z,4.50
2019-03-21T06:39:14.981Z,4.20
2019-03-21T06:41:42.268Z,4.83
2019-03-21T06:44:09.536Z,5.30
2019-03-21T06:46:36.779Z,5.00
2019-03-21T06:49:04.376Z,4.67
2019-03-21T06:51:31.651Z,5.40
2019-03-21T06:53:59.149Z,4.40
2019-03-21T06:56:26.423Z,4.50
2019-03-21T06:58:53.676Z,4.40
2019-03-21T07:01:20.950Z,4.80
2019-03-21T07:03:48.221Z,5.80
2019-03-21T07:06:15.718Z,5.40
2019-03-21T07:08:42.995Z,7.67
2019-03-21T07:11:10.240Z,6.40
2019-03-21T07:13:37.762Z,5.13
2019-03-21T07:16:05.040Z,5.53
2019-03-21T07:18:32.281Z,4.30
2019-03-21T07:21:01.108Z,4.57
2019-03-21T07:23:28.826Z,4.70
2019-03-21T07:25:56.346Z,4.10
2019-03-21T07:28:23.833Z,4.13
2019-03-21T07:30:51.098Z,4.40
2019-03-21T07:33:18.376Z,5.90
2019-03-21T07:35:45.621Z,6.00
2019-03-21T07:38:12.892Z,7.47
2019-03-21T07:40:40.174Z,6.47
2019-03-21T07:43:07.418Z,6.40
2019-03-21T07:45:34.935Z,6.80
2019-03-21T07:48:04.986Z,6.83
2019-03-21T07:50:31.423Z,6.67
2019-03-21T07:52:58.695Z,6.90
2019-03-21T07:55:25.945Z,7.13
2019-03-21T07:57:53.223Z,7.00
2019-03-21T08:00:20.746Z,7.67
2019-03-21T08:02:48.021Z,6.90
2019-03-21T08:05:15.564Z,7.40
2019-03-21T08:07:42.830Z,7.40
2019-03-21T08:10:13.456Z,7.67
2019-03-21T08:12:40.974Z,7.10
2019-03-21T08:15:09.766Z,7.63
2019-03-21T08:17:37.041Z,7.47
2019-03-21T08:20:05.826Z,7.20
2019-03-21T08:22:33.110Z,7.17
2019-03-21T08:25:00.398Z,6.60
2019-03-21T08:27:27.629Z,5.97
2019-03-21T08:29:54.906Z,6.83
2019-03-21T08:32:22.154Z,5.80
2019-03-21T08:34:49.441Z,5.60
2019-03-21T08:37:16.694Z,5.70
2019-03-21T08:39:43.943Z,4.80
2019-03-21T08:42:11.457Z,3.80
2019-03-21T08:44:38.991Z,3.60
2019-03-21T08:47:06.482Z,4.00
2019-03-21T08:49:33.765Z,2.90
2019-03-21T08:52:00.997Z,3.30
2019-03-21T08:54:28.274Z,3.20
2019-03-21T08:56:55.788Z,3.10
2019-03-21T08:59:23.315Z,3.60
2019-03-21T09:01:50.639Z,3.33
2019-03-21T09:04:17.879Z,3.50
2019-03-21T09:06:45.467Z,3.07
2019-03-21T09:09:12.746Z,3.00
2019-03-21T09:11:39.992Z,2.87
2019-03-21T09:14:07.257Z,4.27
2019-03-21T09:16:34.551Z,3.47
2019-03-21T09:19:01.796Z,3.20
2019-03-21T09:21:29.291Z,2.80
2019-03-21T09:23:56.567Z,3.47
2019-03-21T09:26:24.058Z,3.20
2019-03-21T09:28:51.574Z,3.30
2019-03-21T09:31:18.866Z,3.53
2019-03-21T09:33:46.105Z,3.30
2019-03-21T09:36:13.522Z,4.00
2019-03-21T09:38:41.078Z,3.67
2019-03-21T09:41:08.598Z,3.43
2019-03-21T09:43:35.847Z,3.87
2019-03-21T09:46:03.123Z,4.43
2019-03-21T09:48:30.382Z,4.50
2019-03-21T09:50:57.656Z,3.83
2019-03-21T09:53:24.926Z,3.80
2019-03-21T09:55:52.180Z,4.20
2019-03-21T09:58:19.494Z,5.10
2019-03-21T10:00:47.036Z,3.60
2019-03-21T10:03:14.275Z,4.10
2019-03-21T10:05:41.538Z,3.93
2019-03-21T10:08:08.897Z,4.73
2019-03-21T10:10:36.400Z,5.37
2019-03-21T10:13:04.820Z,3.67
2019-03-21T10:15:32.066Z,3.40
2019-03-21T10:17:59.337Z,3.53
2019-03-21T10:20:26.862Z,4.00
2019-03-21T10:22:54.197Z,3.33
2019-03-21T10:25:21.467Z,3.30
2019-03-21T10:27:48.749Z,3.13
2019-03-21T10:30:17.527Z,2.97
2019-03-21T10:32:44.877Z,2.60
2019-03-21T10:35:12.369Z,2.70
2019-03-21T10:37:39.639Z,2.77
2019-03-21T10:40:07.153Z,3.50
2019-03-21T10:42:34.653Z,2.60
2019-03-21T10:45:01.936Z,2.73
2019-03-21T10:47:29.214Z,3.77
2019-03-21T10:49:56.538Z,4.97
2019-03-21T10:52:23.811Z,4.33
2019-03-21T10:54:51.086Z,3.50
2019-03-21T10:57:18.588Z,3.50
2019-03-21T10:59:45.862Z,3.60
2019-03-21T11:02:13.111Z,3.43
2019-03-21T11:04:40.388Z,3.00
2019-03-21T11:07:07.457Z,3.10
2019-03-21T11:09:34.958Z,3.20
2019-03-21T11:12:02.238Z,3.50
2019-03-21T11:14:29.742Z,3.37
2019-03-21T11:16:57.380Z,3.20
2019-03-21T11:19:24.649Z,3.63
2019-03-21T11:21:51.896Z,4.00
2019-03-21T11:24:19.170Z,3.10
2019-03-21T11:26:46.414Z,3.87
2019-03-21T11:29:13.957Z,3.70
2019-03-21T11:31:41.247Z,3.97
2019-03-21T11:34:08.485Z,3.30
2019-03-21T11:36:38.617Z,4.20
2019-03-21T11:39:06.521Z,3.63
2019-03-21T11:41:34.066Z,3.80
2019-03-21T11:44:01.386Z,3.23
2019-03-21T11:46:28.634Z,3.07
2019-03-21T11:48:56.150Z,3.33
2019-03-21T11:51:23.404Z,3.70
2019-03-21T11:53:50.682Z,4.50
2019-03-21T11:56:17.922Z,3.87
2019-03-21T11:58:45.171Z,3.83
2019-03-21T12:01:12.447Z,3.33
2019-03-21T12:03:39.689Z,3.10
2019-03-21T12:06:06.963Z,3.87
2019-03-21T12:08:34.235Z,3.73
2019-03-21T12:11:01.482Z,3.50
2019-03-21T12:13:28.728Z,3.37
2019-03-21T12:15:55.998Z,4.10
2019-03-21T12:18:23.244Z,3.70
2019-03-21T12:20:50.521Z,3.67
2019-03-21T12:23:17.793Z,4.00
2019-03-21T12:25:45.043Z,4.03
2019-03-21T12:28:12.306Z,3.73
2019-03-21T12:30:40.110Z,3.97
2019-03-21T12:33:07.562Z,3.50
2019-03-21T12:35:34.878Z,4.10
2019-03-21T12:38:02.457Z,4.10
2019-03-21T12:40:29.735Z,4.03
2019-03-21T12:42:57.065Z,5.00
2019-03-21T12:45:24.985Z,3.87
2019-03-21T12:47:52.431Z,4.07
2019-03-21T12:50:19.686Z,3.60
2019-03-21T12:52:47.356Z,3.60
2019-03-21T12:55:14.753Z,3.17
2019-03-21T12:57:42.580Z,3.30
2019-03-21T13:00:10.998Z,3.67
2019-03-21T13:02:38.419Z,3.97
2019-03-21T13:05:07.342Z,4.03
2019-03-21T13:07:35.236Z,3.80
2019-03-21T13:10:03.274Z,4.13
2019-03-21T13:12:30.749Z,3.80
2019-03-21T13:14:58.355Z,3.63
2019-03-21T13:17:25.594Z,3.50
2019-03-21T13:19:53.322Z,3.57
2019-03-21T13:22:20.920Z,3.13
2019-03-21T13:24:48.705Z,3.27
2019-03-21T13:27:16.029Z,3.47
2019-03-21T13:29:43.548Z,3.63
2019-03-21T13:32:11.398Z,4.00
2019-03-21T13:34:38.810Z,4.13
2019-03-21T13:37:06.136Z,3.90
2019-03-21T13:39:33.383Z,4.27
2019-03-21T13:42:00.658Z,4.60
2019-03-21T13:44:28.183Z,3.80
2019-03-21T13:46:56.615Z,4.00
2019-03-21T13:49:23.975Z,3.57
2019-03-21T13:51:51.309Z,4.47
2019-03-21T13:54:18.559Z,3.60
2019-03-21T13:56:45.827Z,3.90
2019-03-21T13:59:13.342Z,4.00
2019-03-21T14:01:40.618Z,4.30
2019-03-21T14:04:07.862Z,4.17
2019-03-21T14:06:35.130Z,3.57
2019-03-21T14:09:02.398Z,3.77
2019-03-21T14:11:29.676Z,3.73
2019-03-21T14:13:56.950Z,4.30
2019-03-21T14:16:24.235Z,4.30
2019-03-21T14:18:51.771Z,3.70
2019-03-21T14:21:19.316Z,4.43
2019-03-21T14:23:46.630Z,4.07
2019-03-21T14:26:13.870Z,3.40
2019-03-21T14:28:41.121Z,4.67
2019-03-21T14:31:08.404Z,4.00
2019-03-21T14:33:35.677Z,4.57
2019-03-21T14:36:02.956Z,3.67
2019-03-21T14:38:30.221Z,4.43
2019-03-21T14:40:58.595Z,4.03
2019-03-21T14:43:25.874Z,3.60
2019-03-21T14:45:53.136Z,4.40
2019-03-21T14:48:20.411Z,4.50
2019-03-21T14:50:47.679Z,4.90
2019-03-21T14:53:14.956Z,4.33
2019-03-21T14:55:47.410Z,3.93
2019-03-21T14:58:11.288Z,7.47
2019-03-21T15:00:38.533Z,4.40
2019-03-21T15:03:05.774Z,4.30
2019-03-21T15:05:33.068Z,6.63
2019-03-21T15:08:00.375Z,4.53
2019-03-21T15:10:27.915Z,15.20
2019-03-21T15:12:55.158Z,5.77
2019-03-21T15:15:22.437Z,4.00
2019-03-21T15:17:49.689Z,3.30
2019-03-21T15:20:17.231Z,3.90
2019-03-21T15:22:44.480Z,4.37
2019-03-21T15:25:11.994Z,4.07
2019-03-21T15:27:39.518Z,3.80
2019-03-21T15:30:08.352Z,4.07
2019-03-21T15:32:35.826Z,5.10
2019-03-21T15:35:04.346Z,5.20
2019-03-21T15:37:31.599Z,6.40
2019-03-21T15:39:58.869Z,4.30
2019-03-21T15:42:26.114Z,5.00
2019-03-21T15:44:53.384Z,9.70
2019-03-21T15:47:20.906Z,7.93
2019-03-21T15:49:51.167Z,17.27
2019-03-21T15:52:18.427Z,7.60
2019-03-21T15:54:45.677Z,4.30
2019-03-21T15:57:12.947Z,4.27
2019-03-21T15:59:40.266Z,3.77
2019-03-21T16:02:07.542Z,7.00
2019-03-21T16:04:35.050Z,10.70
2019-03-21T16:07:02.586Z,13.13
2019-03-21T16:09:30.120Z,12.17
2019-03-21T16:11:57.475Z,4.27
2019-03-21T16:14:25.005Z,3.37
2019-03-21T16:16:52.242Z,4.30
2019-03-21T16:19:19.518Z,3.47
2019-03-21T16:21:46.842Z,3.60
2019-03-21T16:24:14.334Z,3.53
2019-03-21T16:26:41.619Z,3.20
2019-03-21T16:29:10.317Z,3.60
2019-03-21T16:31:37.753Z,4.10
2019-03-21T16:34:05.042Z,4.37
2019-03-21T16:36:32.540Z,3.87
2019-03-21T16:38:59.782Z,3.47
2019-03-21T16:41:27.066Z,3.50
2019-03-21T16:43:54.313Z,3.40
2019-03-21T16:46:21.592Z,3.57
2019-03-21T16:48:48.835Z,3.47
2019-03-21T16:51:16.350Z,4.00
2019-03-21T16:53:44.017Z,3.23
2019-03-21T16:56:11.424Z,3.87
2019-03-21T16:58:38.949Z,3.40
2019-03-21T17:01:06.222Z,2.87
2019-03-21T17:03:33.491Z,3.33
2019-03-21T17:06:00.983Z,3.13
2019-03-21T17:08:28.275Z,3.03
2019-03-21T17:10:55.857Z,3.70
2019-03-21T17:13:23.802Z,3.20
2019-03-21T17:15:51.163Z,2.90
2019-03-21T17:18:18.461Z,3.33
2019-03-21T17:20:46.023Z,3.23
2019-03-21T17:23:13.295Z,3.13
2019-03-21T17:25:40.621Z,2.90
2019-03-21T17:28:07.874Z,3.07
2019-03-21T17:30:35.402Z,2.90
2019-03-21T17:33:02.934Z,3.03
2019-03-21T17:35:30.201Z,3.00
2019-03-21T17:37:57.461Z,2.43
2019-03-21T17:40:24.743Z,2.70
2019-03-21T17:42:51.983Z,2.80
2019-03-21T17:45:19.257Z,2.57
2019-03-21T17:47:46.590Z,2.53
2019-03-21T17:50:15.406Z,3.07
2019-03-21T17:52:43.005Z,3.40
2019-03-21T17:55:10.434Z,2.90
2019-03-21T17:57:37.750Z,2.70
2019-03-21T18:00:12.707Z,2.60
2019-03-21T18:02:40.995Z,2.93
2019-03-21T18:05:08.406Z,2.17
2019-03-21T18:07:35.922Z,2.60
2019-03-21T18:10:04.930Z,2.23
2019-03-21T18:12:32.460Z,2.20
2019-03-21T18:14:59.983Z,2.15
2019-03-21T18:17:27.252Z,2.27
2019-03-21T18:19:54.493Z,2.67
2019-03-21T18:22:21.845Z,1.90
2019-03-21T18:24:53.672Z,2.07
2019-03-21T18:27:18.066Z,2.50
2019-03-21T18:29:45.594Z,2.33
2019-03-21T18:32:12.841Z,2.47
2019-03-21T18:34:40.113Z,2.20
2019-03-21T18:37:07.614Z,2.40
2019-03-21T18:39:34.898Z,2.40
2019-03-21T18:42:02.285Z,2.10
2019-03-21T18:44:29.540Z,2.50
2019-03-21T18:46:56.828Z,1.90
2019-03-21T18:49:24.068Z,2.20
2019-03-21T18:51:51.569Z,2.40
2019-03-21T18:54:18.835Z,1.90
2019-03-21T18:56:46.106Z,2.10
2019-03-21T18:59:13.685Z,2.27
2019-03-21T19:01:41.564Z,2.17
2019-03-21T19:04:09.210Z,2.33
2019-03-21T19:06:37.982Z,2.10
2019-03-21T19:09:06.607Z,2.37
2019-03-21T19:11:33.965Z,2.33
2019-03-21T19:14:01.358Z,2.23
2019-03-21T19:16:28.736Z,1.97
2019-03-21T19:18:56.895Z,2.47
2019-03-21T19:21:24.621Z,2.47
2019-03-21T19:23:51.895Z,2.30
2019-03-21T19:26:19.155Z,2.30
2019-03-21T19:28:46.456Z,2.50
2019-03-21T19:31:13.734Z,2.53
2019-03-21T19:33:41.254Z,2.30
2019-03-21T19:36:08.607Z,2.40
2019-03-21T19:38:35.915Z,2.77
2019-03-21T19:41:03.264Z,2.33
2019-03-21T19:43:30.541Z,2.70
2019-03-21T19:45:57.791Z,3.03
2019-03-21T19:48:25.118Z,2.70
2019-03-21T19:50:52.404Z,2.37
2019-03-21T19:53:19.718Z,2.97
2019-03-21T19:55:47.261Z,2.93
2019-03-21T19:58:14.771Z,2.80
2019-03-21T20:00:42.015Z,2.97
2019-03-21T20:03:09.627Z,3.03
2019-03-21T20:05:36.870Z,3.20
2019-03-21T20:08:04.303Z,2.60
2019-03-21T20:10:31.588Z,3.50
2019-03-21T20:12:58.859Z,2.70
2019-03-21T20:15:26.624Z,3.63
2019-03-21T20:17:53.901Z,2.80
2019-03-21T20:20:21.147Z,3.60
2019-03-21T20:22:48.422Z,3.73
2019-03-21T20:25:16.046Z,3.10
2019-03-21T20:27:43.419Z,2.70
2019-03-21T20:30:14.926Z,3.93
2019-03-21T20:32:42.202Z,3.77
2019-03-21T20:35:09.616Z,3.43
2019-03-21T20:37:36.882Z,3.63
2019-03-21T20:40:06.003Z,3.37
2019-03-21T20:42:33.281Z,3.80
2019-03-21T20:45:00.559Z,2.97
2019-03-21T20:47:28.085Z,3.27
2019-03-21T20:49:55.329Z,3.83
2019-03-21T20:52:22.603Z,3.80
2019-03-21T20:54:50.155Z,3.63
2019-03-21T20:57:17.406Z,3.40
2019-03-21T20:59:44.931Z,3.53
2019-03-21T21:02:12.418Z,3.43
2019-03-21T21:04:39.707Z,3.67
2019-03-21T21:07:07.214Z,3.40
2019-03-21T21:09:34.530Z,3.87
2019-03-21T21:12:01.803Z,3.20
2019-03-21T21:14:29.313Z,3.83
2019-03-21T21:16:56.842Z,3.20
2019-03-21T21:19:24.094Z,4.03
2019-03-21T21:21:51.454Z,3.40
2019-03-21T21:24:18.756Z,4.10
2019-03-21T21:26:46.032Z,3.80
2019-03-21T21:29:13.273Z,4.20
2019-03-21T21:31:40.820Z,3.53
2019-03-21T21:34:08.063Z,4.23
2019-03-21T21:36:35.349Z,3.70
2019-03-21T21:39:03.000Z,3.40
2019-03-21T21:41:30.524Z,3.60
2019-03-21T21:43:58.058Z,3.23
2019-03-21T21:46:25.338Z,3.60
2019-03-21T21:48:52.583Z,3.37
2019-03-21T21:51:19.854Z,3.57
2019-03-21T21:53:47.364Z,4.37
2019-03-21T21:56:17.731Z,3.63
2019-03-21T21:58:44.140Z,3.80
2019-03-21T22:01:11.626Z,3.30
2019-03-21T22:03:38.913Z,3.27
2019-03-21T22:06:06.245Z,3.30
2019-03-21T22:08:33.495Z,3.60
2019-03-21T22:11:02.322Z,3.80
2019-03-21T22:13:29.699Z,3.17
2019-03-21T22:15:56.946Z,3.43
2019-03-21T22:18:24.197Z,3.43
2019-03-21T22:20:51.537Z,3.40
2019-03-21T22:23:18.813Z,3.60
2019-03-21T22:25:46.086Z,3.40
2019-03-21T22:28:13.358Z,3.80
2019-03-21T22:30:40.604Z,3.50
2019-03-21T22:33:08.118Z,4.20
2019-03-21T22:35:35.359Z,3.70
2019-03-21T22:38:02.637Z,3.47
2019-03-21T22:40:29.912Z,3.93
2019-03-21T22:42:57.195Z,3.70
2019-03-21T22:45:24.438Z,3.67
2019-03-21T22:47:51.934Z,4.20
2019-03-21T22:50:19.457Z,4.00
2019-03-21T22:52:46.740Z,3.40
2019-03-21T22:55:14.010Z,4.20
2019-03-21T22:57:41.246Z,3.70
2019-03-21T23:00:10.294Z,3.77
2019-03-21T23:02:37.538Z,4.20
2019-03-21T23:05:05.871Z,3.97
2019-03-21T23:07:33.114Z,3.90
2019-03-21T23:10:00.388Z,4.37
2019-03-21T23:12:27.881Z,3.60
2019-03-21T23:14:55.415Z,3.63
2019-03-21T23:17:22.665Z,4.00
2019-03-21T23:19:49.902Z,3.90
2019-03-21T23:22:17.178Z,3.73
2019-03-21T23:24:44.455Z,3.50
2019-03-21T23:27:11.700Z,3.57
2019-03-21T23:29:38.971Z,3.50
2019-03-21T23:32:06.247Z,3.50
2019-03-21T23:34:33.490Z,4.00
2019-03-21T23:37:01.039Z,3.53
2019-03-21T23:39:28.534Z,4.33
2019-03-21T23:41:55.810Z,3.90
2019-03-21T23:44:23.059Z,3.93
2019-03-21T23:46:50.298Z,3.30
2019-03-21T23:49:17.820Z,3.10
2019-03-21T23:51:45.082Z,4.20
2019-03-21T23:54:12.358Z,4.27
2019-03-21T23:56:39.624Z,3.83
2019-03-21T23:59:06.901Z,3.63
